Time;durP1;ratioP1;P1;durP2;ratioP2;P2;SDS_P1;SDS_P2;PMS_P1;PMS_P2;Temp;Humidity;BMP_temperature;BMP_pressure;BME280_temperature;BME280_humidity;BME280_pressure;Samples;Min_cycle;Max_cycle;Signal;HPM_P1;HPM_P2
2023/07/19 00:01:06;;;;;;;1.52;0.80;;;;;;;;;;5073969;28;20261;-41
2023/07/19 00:03:36;;;;;;;1.02;0.93;;;;;;;;;;5073936;28;20184;-41
2023/07/19 00:06:03;;;;;;;1.95;0.70;;;;;;;;;;5073997;28;20198;-41
2023/07/19 00:08:31;;;;;;;2.78;0.80;;;;;;;;;;5073831;28;20234;-41
2023/07/19 00:10:59;;;;;;;1.65;1.00;;;;;;;;;;5072881;28;20199;-40
2023/07/19 00:13:27;;;;;;;1.55;0.98;;;;;;;;;;5073391;28;20667;-40
2023/07/19 00:15:54;;;;;;;1.60;0.90;;;;;;;;;;5074024;28;20200;-41
2023/07/19 00:18:21;;;;;;;1.75;0.90;;;;;;;;;;5073649;28;20203;-42
2023/07/19 00:20:48;;;;;;;0.90;0.73;;;;;;;;;;5055895;28;20230;-41
2023/07/19 00:23:15;;;;;;;1.45;1.10;;;;;;;;;;5053542;28;20227;-41
2023/07/19 00:25:45;;;;;;;4.32;1.50;;;;;;;;;;5053837;28;20249;-41
2023/07/19 00:28:12;;;;;;;1.95;1.27;;;;;;;;;;5053197;28;20231;-40
2023/07/19 00:30:40;;;;;;;1.77;1.15;;;;;;;;;;5072570;28;20252;-41
2023/07/19 00:33:08;;;;;;;0.98;0.73;;;;;;;;;;5063446;28;20199;-41
2023/07/19 00:35:42;;;;;;;3.75;0.80;;;;;;;;;;5065106;28;20199;-41
2023/07/19 00:38:14;;;;;;;1.00;0.88;;;;;;;;;;5072917;28;20608;-41
2023/07/19 00:40:41;;;;;;;2.00;1.10;;;;;;;;;;5071902;28;20604;-41
2023/07/19 00:43:11;;;;;;;1.48;1.00;;;;;;;;;;5072214;28;20215;-41
2023/07/19 00:45:44;;;;;;;2.00;1.15;;;;;;;;;;5072162;28;20203;-40
2023/07/19 00:48:12;;;;;;;2.00;1.10;;;;;;;;;;5072114;28;20234;-41
2023/07/19 00:50:39;;;;;;;1.63;0.90;;;;;;;;;;5072280;28;20257;-41
2023/07/19 00:53:09;;;;;;;3.80;1.00;;;;;;;;;;5071950;28;20206;-41
2023/07/19 00:55:36;;;;;;;1.55;0.82;;;;;;;;;;5071825;28;20579;-40
2023/07/19 00:58:03;;;;;;;5.78;1.05;;;;;;;;;;5071842;28;20699;-41
2023/07/19 01:00:30;;;;;;;2.42;1.10;;;;;;;;;;5073198;28;20245;-40
2023/07/19 01:02:59;;;;;;;1.92;1.05;;;;;;;;;;5073301;28;20200;-41
2023/07/19 01:05:27;;;;;;;1.45;1.10;;;;;;;;;;5072872;28;20230;-41
2023/07/19 01:07:54;;;;;;;1.95;1.20;;;;;;;;;;5073170;28;20199;-41
2023/07/19 01:10:23;;;;;;;5.53;1.50;;;;;;;;;;5072184;28;20605;-41
2023/07/19 01:13:04;;;;;;;6.22;1.13;;;;;;;;;;5071721;28;20203;-40
2023/07/19 01:15:31;;;;;;;2.25;1.20;;;;;;;;;;5072126;28;20187;-41
2023/07/19 01:17:59;;;;;;;1.83;1.02;;;;;;;;;;5072705;28;20211;-41
2023/07/19 01:20:26;;;;;;;1.42;1.13;;;;;;;;;;5072872;28;20203;-40
2023/07/19 01:22:56;;;;;;;4.70;1.30;;;;;;;;;;5076209;28;20235;-41
2023/07/19 01:25:24;;;;;;;1.65;1.20;;;;;;;;;;5075897;28;20207;-40
2023/07/19 01:27:51;;;;;;;1.10;1.00;;;;;;;;;;5075511;28;20209;-41
2023/07/19 01:30:18;;;;;;;3.47;0.90;;;;;;;;;;5076384;28;20634;-41
2023/07/19 01:32:46;;;;;;;4.13;0.90;;;;;;;;;;5075556;28;20199;-40
2023/07/19 01:35:13;;;;;;;5.13;1.00;;;;;;;;;;5076370;28;20561;-41
2023/07/19 01:37:41;;;;;;;3.08;1.00;;;;;;;;;;5076691;28;20211;-41
2023/07/19 01:40:10;;;;;;;1.45;1.13;;;;;;;;;;5076534;28;20212;-41
2023/07/19 01:42:39;;;;;;;1.40;0.90;;;;;;;;;;5076807;28;20207;-41
2023/07/19 01:45:06;;;;;;;0.93;0.90;;;;;;;;;;5076271;28;20615;-41
2023/07/19 01:47:34;;;;;;;3.45;1.02;;;;;;;;;;5075964;28;20274;-41
2023/07/19 01:50:03;;;;;;;1.75;1.10;;;;;;;;;;5074981;28;20228;-41
2023/07/19 01:52:30;;;;;;;6.22;1.30;;;;;;;;;;5075084;28;20256;-41
2023/07/19 01:54:57;;;;;;;1.35;1.00;;;;;;;;;;5075938;28;20211;-41
2023/07/19 01:57:24;;;;;;;3.92;1.05;;;;;;;;;;5074671;28;20542;-41
2023/07/19 01:59:51;;;;;;;2.00;1.50;;;;;;;;;;5074889;28;20269;-40
2023/07/19 02:02:20;;;;;;;3.08;0.98;;;;;;;;;;5074454;28;20261;-41
2023/07/19 02:04:48;;;;;;;2.15;1.08;;;;;;;;;;5074572;28;20227;-40
2023/07/19 02:07:15;;;;;;;1.83;1.15;;;;;;;;;;5075790;28;20578;-41
2023/07/19 02:09:43;;;;;;;4.97;1.20;;;;;;;;;;5075802;28;20310;-41
2023/07/19 02:12:10;;;;;;;2.00;1.60;;;;;;;;;;5075436;28;20199;-41
2023/07/19 02:14:38;;;;;;;5.70;1.25;;;;;;;;;;5057776;28;20725;-41
2023/07/19 02:17:05;;;;;;;2.42;1.33;;;;;;;;;;5075676;28;20204;-41
2023/07/19 02:19:32;;;;;;;1.73;1.00;;;;;;;;;;5075467;28;20264;-41
2023/07/19 02:21:59;;;;;;;1.52;1.15;;;;;;;;;;5075501;28;20241;-41
2023/07/19 02:24:27;;;;;;;4.15;2.13;;;;;;;;;;5074208;28;20256;-41
2023/07/19 02:26:54;;;;;;;4.05;1.75;;;;;;;;;;5074040;28;20200;-41
2023/07/19 02:29:21;;;;;;;1.35;1.05;;;;;;;;;;5074013;28;20696;-41
2023/07/19 02:31:51;;;;;;;2.30;1.17;;;;;;;;;;5075518;28;20203;-40
2023/07/19 02:34:21;;;;;;;1.95;1.23;;;;;;;;;;5074212;28;20227;-40
2023/07/19 02:36:49;;;;;;;1.67;1.15;;;;;;;;;;5073807;28;20188;-41
2023/07/19 02:39:20;;;;;;;2.67;0.93;;;;;;;;;;5073827;28;20203;-41
2023/07/19 02:41:47;;;;;;;1.80;1.20;;;;;;;;;;5074002;28;20211;-41
2023/07/19 02:44:14;;;;;;;1.33;1.20;;;;;;;;;;5075194;28;20231;-40
2023/07/19 02:46:41;;;;;;;1.30;1.00;;;;;;;;;;5074833;28;20721;-41
2023/07/19 02:49:10;;;;;;;3.72;1.33;;;;;;;;;;5074843;28;20235;-40
2023/07/19 02:51:38;;;;;;;4.53;1.33;;;;;;;;;;5074645;28;20597;-41
2023/07/19 02:54:05;;;;;;;2.40;1.30;;;;;;;;;;5073633;28;20204;-41
2023/07/19 02:56:32;;;;;;;1.80;1.30;;;;;;;;;;5073799;28;20286;-41
2023/07/19 02:58:59;;;;;;;1.73;1.30;;;;;;;;;;5074807;28;20215;-41
2023/07/19 03:01:26;;;;;;;1.85;1.30;;;;;;;;;;5073711;28;20294;-40
2023/07/19 03:03:54;;;;;;;2.40;1.52;;;;;;;;;;5075160;28;20200;-41
2023/07/19 03:06:21;;;;;;;5.93;1.55;;;;;;;;;;5074707;28;20204;-43
2023/07/19 03:08:48;;;;;;;4.40;1.50;;;;;;;;;;5073644;28;20210;-44
2023/07/19 03:11:15;;;;;;;1.58;1.33;;;;;;;;;;5073425;28;20682;-43
2023/07/19 03:13:43;;;;;;;4.38;1.67;;;;;;;;;;5074549;28;20207;-43
2023/07/19 03:16:10;;;;;;;1.80;1.10;;;;;;;;;;5074641;28;20282;-43
2023/07/19 03:18:37;;;;;;;2.97;1.40;;;;;;;;;;5073573;28;20264;-44
2023/07/19 03:21:04;;;;;;;2.15;1.25;;;;;;;;;;5074166;28;20257;-43
2023/07/19 03:23:31;;;;;;;1.98;1.42;;;;;;;;;;5073326;28;20564;-42
2023/07/19 03:25:59;;;;;;;3.17;1.40;;;;;;;;;;5073092;28;20203;-41
2023/07/19 03:28:28;;;;;;;1.95;1.17;;;;;;;;;;5073425;28;20257;-40
2023/07/19 03:30:57;;;;;;;2.15;1.15;;;;;;;;;;5072954;28;20219;-41
2023/07/19 03:33:25;;;;;;;1.90;1.20;;;;;;;;;;5073016;28;20207;-40
2023/07/19 03:35:52;;;;;;;1.92;1.30;;;;;;;;;;5074288;28;20211;-41
2023/07/19 03:38:20;;;;;;;1.80;1.20;;;;;;;;;;5081475;28;20202;-41
2023/07/19 03:40:49;;;;;;;2.20;1.50;;;;;;;;;;5074384;28;20282;-41
2023/07/19 03:43:16;;;;;;;1.75;1.20;;;;;;;;;;5072951;28;20196;-41
2023/07/19 03:45:43;;;;;;;4.20;1.52;;;;;;;;;;5073102;28;20671;-43
2023/07/19 03:48:12;;;;;;;2.50;1.40;;;;;;;;;;5074555;28;20207;-41
2023/07/19 03:50:39;;;;;;;6.10;1.73;;;;;;;;;;5072478;28;20245;-41
2023/07/19 03:53:09;;;;;;;8.82;1.70;;;;;;;;;;5064584;28;20199;-43
2023/07/19 03:55:36;;;;;;;3.78;1.60;;;;;;;;;;5071036;28;20219;-43
2023/07/19 03:58:05;;;;;;;4.28;1.63;;;;;;;;;;5071825;28;20260;-42
2023/07/19 04:00:32;;;;;;;2.30;1.67;;;;;;;;;;5062729;28;20645;-43
2023/07/19 04:03:00;;;;;;;3.35;1.50;;;;;;;;;;5062719;28;20709;-42
2023/07/19 04:05:27;;;;;;;3.58;1.80;;;;;;;;;;5065831;28;20223;-43
2023/07/19 04:07:55;;;;;;;4.25;1.55;;;;;;;;;;5069998;28;20722;-42
2023/07/19 04:10:22;;;;;;;2.45;1.42;;;;;;;;;;5059910;28;20231;-43
2023/07/19 04:12:49;;;;;;;4.95;1.63;;;;;;;;;;5071613;28;20223;-43
2023/07/19 04:15:16;;;;;;;3.63;1.55;;;;;;;;;;5070920;28;20223;-43
2023/07/19 04:17:43;;;;;;;3.33;1.92;;;;;;;;;;5074395;28;20233;-43
2023/07/19 04:20:11;;;;;;;2.42;1.50;;;;;;;;;;5082084;28;20621;-43
2023/07/19 04:22:39;;;;;;;3.05;2.00;;;;;;;;;;5091515;28;20702;-43
2023/07/19 04:25:06;;;;;;;3.10;1.58;;;;;;;;;;5091370;28;20234;-43
2023/07/19 04:27:34;;;;;;;5.10;1.60;;;;;;;;;;5091628;28;20219;-43
2023/07/19 04:30:02;;;;;;;3.50;1.52;;;;;;;;;;5091316;28;20654;-45
2023/07/19 04:32:29;;;;;;;3.13;1.52;;;;;;;;;;5091867;28;20306;-43
2023/07/19 04:34:58;;;;;;;2.60;1.52;;;;;;;;;;5092185;28;20753;-43
2023/07/19 04:37:25;;;;;;;3.80;1.83;;;;;;;;;;5093014;28;20324;-43
2023/07/19 04:39:52;;;;;;;2.55;1.83;;;;;;;;;;5091473;28;20226;-43
2023/07/19 04:42:22;;;;;;;4.05;2.08;;;;;;;;;;5092796;28;20249;-43
2023/07/19 04:44:50;;;;;;;3.08;1.88;;;;;;;;;;5091436;28;20233;-43
2023/07/19 04:47:20;;;;;;;4.53;2.97;;;;;;;;;;5091281;28;20317;-43
2023/07/19 04:49:47;;;;;;;2.60;1.67;;;;;;;;;;5085979;28;20250;-43
2023/07/19 04:52:14;;;;;;;3.40;1.85;;;;;;;;;;5071918;28;20284;-43
2023/07/19 04:54:43;;;;;;;2.80;1.70;;;;;;;;;;5071247;28;20219;-43
2023/07/19 04:57:10;;;;;;;2.22;1.33;;;;;;;;;;5074062;28;20231;-43
2023/07/19 04:59:37;;;;;;;3.67;2.00;;;;;;;;;;5075527;28;20230;-43
2023/07/19 05:02:04;;;;;;;3.08;1.58;;;;;;;;;;5074975;28;20296;-44
2023/07/19 05:04:32;;;;;;;3.40;1.50;;;;;;;;;;5070155;28;20276;-42
2023/07/19 05:06:59;;;;;;;3.28;1.33;;;;;;;;;;5071666;28;20232;-42
2023/07/19 05:09:29;;;;;;;2.20;1.48;;;;;;;;;;5055084;28;20338;-43
2023/07/19 05:11:57;;;;;;;2.13;1.35;;;;;;;;;;5054940;28;20238;-43
2023/07/19 05:14:26;;;;;;;3.35;1.35;;;;;;;;;;5066413;28;20219;-44
2023/07/19 05:16:53;;;;;;;5.03;1.80;;;;;;;;;;5054087;28;20700;-45
2023/07/19 05:19:20;;;;;;;10.70;5.63;;;;;;;;;;5070972;28;20228;-44
2023/07/19 05:21:47;;;;;;;3.33;1.25;;;;;;;;;;5062825;28;20235;-43
2023/07/19 05:24:14;;;;;;;2.30;1.23;;;;;;;;;;5066430;28;20219;-43
2023/07/19 05:26:44;;;;;;;3.97;1.10;;;;;;;;;;5064969;28;20305;-43
2023/07/19 05:29:11;;;;;;;1.02;0.93;;;;;;;;;;5063452;28;20576;-42
2023/07/19 05:31:38;;;;;;;1.52;0.95;;;;;;;;;;5064802;28;20223;-43
2023/07/19 05:34:07;;;;;;;1.25;0.77;;;;;;;;;;5068921;28;20219;-45
2023/07/19 05:36:34;;;;;;;2.03;1.00;;;;;;;;;;5062664;28;20292;-45
2023/07/19 05:39:01;;;;;;;3.15;1.13;;;;;;;;;;5065946;28;20222;-46
2023/07/19 05:41:29;;;;;;;2.40;1.00;;;;;;;;;;5064113;28;20235;-43
2023/07/19 05:43:57;;;;;;;1.50;0.90;;;;;;;;;;5064697;28;20226;-44
2023/07/19 05:46:37;;;;;;;1.65;0.90;;;;;;;;;;5067020;28;20228;-44
2023/07/19 05:49:04;;;;;;;1.45;0.80;;;;;;;;;;5063680;28;20303;-44
2023/07/19 05:51:31;;;;;;;2.35;0.80;;;;;;;;;;5064750;28;20231;-44
2023/07/19 05:53:58;;;;;;;2.40;1.05;;;;;;;;;;5065671;28;20224;-43
2023/07/19 05:56:26;;;;;;;4.18;1.30;;;;;;;;;;5061983;28;20239;-43
2023/07/19 05:58:54;;;;;;;1.38;1.00;;;;;;;;;;5065575;28;20223;-43
2023/07/19 06:01:21;;;;;;;1.65;0.80;;;;;;;;;;5065788;28;20220;-43
2023/07/19 06:03:51;;;;;;;1.30;1.05;;;;;;;;;;5064093;28;20254;-43
2023/07/19 06:06:19;;;;;;;1.52;0.88;;;;;;;;;;5063774;28;20195;-49
2023/07/19 06:08:46;;;;;;;2.17;0.93;;;;;;;;;;5066641;28;20731;-44
2023/07/19 06:11:14;;;;;;;2.33;1.00;;;;;;;;;;5074940;28;20284;-42
2023/07/19 06:13:41;;;;;;;1.25;0.90;;;;;;;;;;5063254;28;20286;-43
2023/07/19 06:16:08;;;;;;;0.95;0.70;;;;;;;;;;5067269;28;20223;-42
2023/07/19 06:18:35;;;;;;;2.15;1.20;;;;;;;;;;5064109;28;20299;-43
2023/07/19 06:21:03;;;;;;;0.80;0.60;;;;;;;;;;5069782;28;20223;-44
2023/07/19 06:23:30;;;;;;;1.52;0.80;;;;;;;;;;5064091;28;20282;-43
2023/07/19 06:25:58;;;;;;;0.70;0.63;;;;;;;;;;5064953;28;20708;-43
2023/07/19 06:28:25;;;;;;;2.05;0.80;;;;;;;;;;5064493;28;20227;-44
2023/07/19 06:30:53;;;;;;;1.13;0.77;;;;;;;;;;5063444;28;20271;-43
2023/07/19 06:48:21;;;;;;;2.55;0.75;;;;;;;;;;5089612;28;20583;-37
2023/07/19 06:50:49;;;;;;;1.25;0.75;;;;;;;;;;5090450;28;20210;-36
2023/07/19 06:53:17;;;;;;;0.85;0.60;;;;;;;;;;5088255;28;20199;-40
2023/07/19 06:55:44;;;;;;;2.13;0.90;;;;;;;;;;5089628;28;20686;-39
2023/07/19 06:58:11;;;;;;;1.55;0.70;;;;;;;;;;5090235;28;20253;-38
2023/07/19 07:00:39;;;;;;;1.10;0.90;;;;;;;;;;5090251;28;20224;-38
2023/07/19 07:03:06;;;;;;;1.63;0.73;;;;;;;;;;5089915;28;20663;-39
2023/07/19 07:05:33;;;;;;;1.30;0.68;;;;;;;;;;5090238;28;20227;-37
2023/07/19 07:08:00;;;;;;;1.42;0.77;;;;;;;;;;5090435;28;20199;-39
2023/07/19 07:10:28;;;;;;;0.80;0.50;;;;;;;;;;5089959;28;20256;-37
2023/07/19 07:12:55;;;;;;;2.63;0.55;;;;;;;;;;5090239;28;20203;-37
2023/07/19 07:15:23;;;;;;;3.70;0.50;;;;;;;;;;5089740;28;20241;-39
2023/07/19 07:17:49;;;;;;;0.77;0.52;;;;;;;;;;5089860;28;20765;-37
2023/07/19 07:20:18;;;;;;;0.57;0.50;;;;;;;;;;5089781;28;20248;-39
2023/07/19 07:22:45;;;;;;;0.90;0.38;;;;;;;;;;5089699;28;20678;-37
2023/07/19 07:25:12;;;;;;;0.50;0.32;;;;;;;;;;5081541;28;20226;-38
2023/07/19 07:27:39;;;;;;;1.38;0.40;;;;;;;;;;5088427;28;20214;-37
2023/07/19 07:30:09;;;;;;;1.95;0.47;;;;;;;;;;5088527;28;20598;-37
2023/07/19 07:32:37;;;;;;;1.20;1.00;;;;;;;;;;5088536;28;20235;-37
2023/07/19 07:35:06;;;;;;;1.45;0.60;;;;;;;;;;5085125;28;20245;-38
2023/07/19 07:37:33;;;;;;;2.47;0.65;;;;;;;;;;5079344;28;20235;-42
2023/07/19 07:52:30;;;;;;;1.23;0.63;;;;;;;;;;5131303;27;20579;-43
2023/07/19 07:54:58;;;;;;;1.83;0.70;;;;;;;;;;5131187;28;20201;-44
2023/07/19 07:57:25;;;;;;;1.08;0.60;;;;;;;;;;5116851;28;20289;-45
2023/07/19 07:59:52;;;;;;;2.30;0.85;;;;;;;;;;5131009;28;20205;-45
2023/07/19 08:02:19;;;;;;;2.28;0.65;;;;;;;;;;5131397;28;20229;-42
2023/07/19 08:04:47;;;;;;;1.17;0.60;;;;;;;;;;5130948;28;20194;-45
2023/07/19 08:07:14;;;;;;;1.60;0.82;;;;;;;;;;5131297;28;20229;-45
2023/07/19 08:09:44;;;;;;;2.72;0.47;;;;;;;;;;5130847;28;20205;-42
2023/07/19 08:12:14;;;;;;;1.23;0.52;;;;;;;;;;5131251;28;20206;-44
2023/07/19 08:14:41;;;;;;;2.05;0.52;;;;;;;;;;5130730;28;20194;-45
2023/07/19 08:17:10;;;;;;;0.70;0.52;;;;;;;;;;5114820;28;20578;-46
2023/07/19 08:19:38;;;;;;;1.38;0.68;;;;;;;;;;5123169;27;20230;-45
2023/07/19 08:22:06;;;;;;;0.95;0.50;;;;;;;;;;5119591;28;20684;-45
2023/07/19 08:24:34;;;;;;;1.17;0.70;;;;;;;;;;5111928;28;20290;-46
2023/07/19 08:27:01;;;;;;;0.77;0.52;;;;;;;;;;5127717;27;20311;-45
2023/07/19 08:29:28;;;;;;;1.60;0.57;;;;;;;;;;5129191;28;20777;-45
2023/07/19 08:31:55;;;;;;;0.98;0.55;;;;;;;;;;5128668;27;20222;-46
2023/07/19 08:34:23;;;;;;;2.65;0.90;;;;;;;;;;5129497;27;20222;-42
2023/07/19 08:36:50;;;;;;;1.00;0.65;;;;;;;;;;5129172;28;20252;-44
2023/07/19 08:39:17;;;;;;;0.88;0.52;;;;;;;;;;5129193;28;20221;-45
2023/07/19 08:41:44;;;;;;;1.27;0.60;;;;;;;;;;5130027;28;20308;-46
2023/07/19 08:44:11;;;;;;;0.85;0.50;;;;;;;;;;5112268;28;20250;-43
2023/07/19 08:46:38;;;;;;;1.48;0.70;;;;;;;;;;5123785;28;20285;-44
2023/07/19 08:49:06;;;;;;;1.00;0.60;;;;;;;;;;5112140;28;20197;-43
2023/07/19 08:51:34;;;;;;;0.85;0.40;;;;;;;;;;5116569;28;20282;-44
2023/07/19 08:54:01;;;;;;;1.42;0.70;;;;;;;;;;5095346;28;20199;-43
2023/07/19 08:56:30;;;;;;;0.57;0.45;;;;;;;;;;5107610;28;20555;-42
2023/07/19 08:58:57;;;;;;;0.57;0.50;;;;;;;;;;5107182;28;20205;-45
2023/07/19 09:01:24;;;;;;;1.02;0.40;;;;;;;;;;5098476;28;20751;-44
2023/07/19 09:03:52;;;;;;;0.80;0.50;;;;;;;;;;5096049;28;20663;-43
2023/07/19 09:06:27;;;;;;;1.20;0.50;;;;;;;;;;5096194;28;20202;-43
2023/07/19 09:08:55;;;;;;;0.98;0.60;;;;;;;;;;5096153;28;20194;-42
2023/07/19 09:11:23;;;;;;;2.50;0.68;;;;;;;;;;5096117;28;20211;-42
2023/07/19 09:13:55;;;;;;;0.90;0.50;;;;;;;;;;5095908;28;20686;-42
2023/07/19 09:16:32;;;;;;;0.77;0.47;;;;;;;;;;5096204;28;20194;-42
2023/07/19 09:19:00;;;;;;;0.73;0.57;;;;;;;;;;5095958;28;20680;-43
2023/07/19 09:21:42;;;;;;;1.35;0.57;;;;;;;;;;5095893;28;20636;-44
2023/07/19 09:24:11;;;;;;;0.57;0.40;;;;;;;;;;5096036;28;20209;-45
2023/07/19 09:26:53;;;;;;;0.70;0.50;;;;;;;;;;5095656;28;20199;-42
2023/07/19 09:29:22;;;;;;;1.50;0.88;;;;;;;;;;5095929;28;20202;-40
2023/07/19 09:31:54;;;;;;;0.68;0.50;;;;;;;;;;5095748;28;20212;-43
2023/07/19 09:34:26;;;;;;;1.00;0.65;;;;;;;;;;5095785;28;20194;-43
2023/07/19 09:36:53;;;;;;;1.33;0.50;;;;;;;;;;5103806;28;20213;-43
2023/07/19 09:39:22;;;;;;;0.60;0.47;;;;;;;;;;5094747;28;20202;-43
2023/07/19 09:41:49;;;;;;;0.93;0.40;;;;;;;;;;5093477;28;20644;-44
2023/07/19 09:44:17;;;;;;;0.70;0.60;;;;;;;;;;5092355;28;20207;-43
2023/07/19 09:46:45;;;;;;;2.95;0.47;;;;;;;;;;5093725;28;20218;-45
2023/07/19 09:49:13;;;;;;;1.33;0.60;;;;;;;;;;5093678;28;20202;-43
2023/07/19 09:51:42;;;;;;;1.10;0.50;;;;;;;;;;5093583;28;20242;-43
2023/07/19 09:54:11;;;;;;;0.80;0.65;;;;;;;;;;5093921;28;20233;-45
2023/07/19 09:56:40;;;;;;;0.73;0.52;;;;;;;;;;5095383;28;20658;-43
2023/07/19 09:59:25;;;;;;;1.30;0.70;;;;;;;;;;5109625;28;20243;-43
2023/07/19 10:01:53;;;;;;;0.88;0.50;;;;;;;;;;5097349;28;20584;-44
2023/07/19 10:04:28;;;;;;;1.50;0.88;;;;;;;;;;5059837;28;20208;-44
2023/07/19 10:07:12;;;;;;;3.53;0.68;;;;;;;;;;5099421;28;20712;-45
2023/07/19 10:09:44;;;;;;;1.13;0.60;;;;;;;;;;5106195;28;20210;-45
2023/07/19 10:12:17;;;;;;;1.85;0.50;;;;;;;;;;5108778;28;20190;-46
2023/07/19 10:15:01;;;;;;;2.45;0.77;;;;;;;;;;5108209;28;20549;-45
2023/07/19 10:17:30;;;;;;;2.30;0.43;;;;;;;;;;5107083;28;20289;-45
2023/07/19 10:20:03;;;;;;;0.70;0.47;;;;;;;;;;5088074;28;20566;-46
2023/07/19 10:22:47;;;;;;;1.08;0.70;;;;;;;;;;5105421;28;20651;-43
2023/07/19 10:25:35;;;;;;;1.92;0.52;;;;;;;;;;5107769;28;20623;-43
2023/07/19 10:28:10;;;;;;;0.80;0.55;;;;;;;;;;5092181;28;20278;-43
2023/07/19 10:31:01;;;;;;;1.55;0.70;;;;;;;;;;5095268;28;20194;-43
2023/07/19 10:33:48;;;;;;;1.13;0.55;;;;;;;;;;5108147;28;20182;-43
2023/07/19 10:36:16;;;;;;;1.00;0.50;;;;;;;;;;5112594;28;20202;-46
2023/07/19 10:38:43;;;;;;;3.75;2.58;;;;;;;;;;5113846;28;20186;-45
2023/07/19 10:41:12;;;;;;;2.38;1.30;;;;;;;;;;5111157;28;20222;-44
2023/07/19 10:43:39;;;;;;;1.33;0.70;;;;;;;;;;5104102;28;20226;-43
2023/07/19 10:46:10;;;;;;;1.15;0.65;;;;;;;;;;5094754;28;20191;-45
2023/07/19 10:48:38;;;;;;;0.65;0.52;;;;;;;;;;5105314;28;20194;-43
2023/07/19 10:51:08;;;;;;;1.13;0.68;;;;;;;;;;5114514;28;20237;-43
2023/07/19 10:53:41;;;;;;;0.65;0.47;;;;;;;;;;5113945;28;20202;-43
2023/07/19 10:56:09;;;;;;;2.63;0.73;;;;;;;;;;5114294;28;20205;-45
2023/07/19 10:58:36;;;;;;;0.82;0.50;;;;;;;;;;5114374;28;20194;-42
2023/07/19 11:01:04;;;;;;;2.13;0.70;;;;;;;;;;5114248;28;20232;-45
2023/07/19 11:03:32;;;;;;;0.63;0.47;;;;;;;;;;5114074;28;20202;-43
2023/07/19 11:06:00;;;;;;;1.77;0.70;;;;;;;;;;5114192;28;20200;-43
2023/07/19 11:08:29;;;;;;;1.02;0.68;;;;;;;;;;5109092;28;20269;-46
2023/07/19 11:10:57;;;;;;;0.40;0.32;;;;;;;;;;5101964;28;20230;-44
2023/07/19 11:13:26;;;;;;;1.20;0.70;;;;;;;;;;5103656;28;20562;-43
2023/07/19 11:15:58;;;;;;;1.08;0.70;;;;;;;;;;5103867;28;20240;-45
2023/07/19 11:18:37;;;;;;;1.35;0.80;;;;;;;;;;5104211;28;20178;-44
2023/07/19 11:21:05;;;;;;;1.65;0.77;;;;;;;;;;5105944;28;20202;-43
2023/07/19 11:23:38;;;;;;;2.70;0.60;;;;;;;;;;5102522;28;20195;-46
2023/07/19 11:26:08;;;;;;;2.70;0.70;;;;;;;;;;5102642;28;20236;-46
2023/07/19 11:28:46;;;;;;;0.80;0.50;;;;;;;;;;5102556;28;20634;-44
2023/07/19 11:31:26;;;;;;;1.02;0.60;;;;;;;;;;5102604;28;20630;-45
2023/07/19 11:34:05;;;;;;;1.50;0.68;;;;;;;;;;5085238;28;20239;-44
2023/07/19 11:36:35;;;;;;;2.22;0.77;;;;;;;;;;5102235;28;20630;-45
2023/07/19 11:39:02;;;;;;;1.50;0.73;;;;;;;;;;5104267;28;20677;-46
2023/07/19 11:41:30;;;;;;;1.33;0.50;;;;;;;;;;5103271;28;20211;-44
2023/07/19 11:43:57;;;;;;;1.05;0.60;;;;;;;;;;5102116;28;20583;-45
2023/07/19 11:46:25;;;;;;;0.65;0.50;;;;;;;;;;5102820;28;20657;-43
2023/07/19 11:48:52;;;;;;;0.70;0.50;;;;;;;;;;5104150;28;20203;-44
2023/07/19 11:51:19;;;;;;;0.55;0.50;;;;;;;;;;5102647;28;20226;-43
2023/07/19 11:53:47;;;;;;;1.00;0.60;;;;;;;;;;5086953;28;20604;-44
2023/07/19 11:56:15;;;;;;;0.80;0.52;;;;;;;;;;5083747;28;20237;-44
2023/07/19 11:58:42;;;;;;;0.88;0.55;;;;;;;;;;5104528;28;20206;-45
2023/07/19 12:01:13;;;;;;;0.98;0.52;;;;;;;;;;5103034;28;20225;-44
2023/07/19 12:03:41;;;;;;;1.02;0.60;;;;;;;;;;5103806;28;20243;-44
2023/07/19 12:06:08;;;;;;;0.68;0.68;;;;;;;;;;5105507;28;20219;-45
2023/07/19 12:08:36;;;;;;;0.93;0.55;;;;;;;;;;5104186;28;20643;-44
2023/07/19 12:11:03;;;;;;;4.00;0.70;;;;;;;;;;5103297;28;20204;-43
2023/07/19 12:13:31;;;;;;;1.60;0.60;;;;;;;;;;5103772;28;20210;-43
2023/07/19 12:15:58;;;;;;;0.90;0.65;;;;;;;;;;5101637;28;20198;-43
2023/07/19 12:18:26;;;;;;;1.33;0.88;;;;;;;;;;5103511;28;20202;-42
2023/07/19 12:20:55;;;;;;;1.67;0.95;;;;;;;;;;5103718;28;20654;-44
2023/07/19 12:23:23;;;;;;;0.82;0.65;;;;;;;;;;5102337;28;20187;-43
2023/07/19 12:25:53;;;;;;;3.00;0.90;;;;;;;;;;5101809;28;20645;-43
2023/07/19 12:28:22;;;;;;;0.68;0.57;;;;;;;;;;5106640;28;20186;-44
2023/07/19 12:30:50;;;;;;;0.73;0.52;;;;;;;;;;5107124;28;20190;-43
2023/07/19 12:33:17;;;;;;;1.95;0.73;;;;;;;;;;5109247;28;20203;-43
2023/07/19 12:35:46;;;;;;;1.70;0.70;;;;;;;;;;5098472;28;20222;-44
2023/07/19 12:38:14;;;;;;;1.02;0.57;;;;;;;;;;5095641;28;20279;-44
2023/07/19 12:40:42;;;;;;;1.50;0.60;;;;;;;;;;5104667;28;20233;-43
2023/07/19 12:43:09;;;;;;;1.38;0.70;;;;;;;;;;5110991;28;20222;-43
2023/07/19 12:45:36;;;;;;;1.45;0.90;;;;;;;;;;5103745;28;20214;-42
2023/07/19 12:48:04;;;;;;;0.60;0.50;;;;;;;;;;5103848;28;20588;-44
2023/07/19 12:50:32;;;;;;;1.55;0.80;;;;;;;;;;5103162;28;20226;-44
2023/07/19 12:52:59;;;;;;;1.80;0.90;;;;;;;;;;5107230;28;20272;-43
2023/07/19 12:55:26;;;;;;;1.50;0.70;;;;;;;;;;5104422;28;20215;-44
2023/07/19 12:57:53;;;;;;;0.90;0.70;;;;;;;;;;5095627;28;20309;-43
2023/07/19 13:00:20;;;;;;;1.42;0.75;;;;;;;;;;5095490;28;20313;-43
2023/07/19 13:02:48;;;;;;;0.82;0.55;;;;;;;;;;5095259;28;20573;-43
2023/07/19 13:05:16;;;;;;;1.52;0.93;;;;;;;;;;5095036;28;20269;-47
2023/07/19 13:07:43;;;;;;;1.95;0.68;;;;;;;;;;5077228;28;20219;-42
2023/07/19 13:10:13;;;;;;;1.05;0.80;;;;;;;;;;5095967;28;20229;-43
2023/07/19 13:12:41;;;;;;;1.75;0.65;;;;;;;;;;5095179;28;20226;-44
2023/07/19 13:15:09;;;;;;;3.33;0.68;;;;;;;;;;5095529;28;20226;-42
2023/07/19 13:17:36;;;;;;;1.80;0.75;;;;;;;;;;5095139;28;20214;-44
2023/07/19 13:20:08;;;;;;;1.17;0.60;;;;;;;;;;5095318;28;20222;-43
2023/07/19 13:22:37;;;;;;;1.05;0.70;;;;;;;;;;5114725;28;20891;-43
2023/07/19 13:25:05;;;;;;;1.30;0.70;;;;;;;;;;5113201;28;20267;-43
2023/07/19 13:27:34;;;;;;;1.27;0.60;;;;;;;;;;5114965;28;20682;-43
2023/07/19 13:30:05;;;;;;;1.63;0.70;;;;;;;;;;5115364;28;20245;-43
2023/07/19 13:32:35;;;;;;;1.13;0.70;;;;;;;;;;5114545;28;20282;-44
2023/07/19 13:35:03;;;;;;;4.85;1.13;;;;;;;;;;5115129;28;20244;-43
2023/07/19 13:37:30;;;;;;;1.17;0.90;;;;;;;;;;5114784;28;20279;-44
2023/07/19 13:40:00;;;;;;;2.72;0.82;;;;;;;;;;5111074;28;20767;-45
2023/07/19 13:42:27;;;;;;;1.20;0.80;;;;;;;;;;5114546;28;20316;-44
2023/07/19 13:44:54;;;;;;;1.15;0.60;;;;;;;;;;5115054;28;20230;-44
2023/07/19 13:47:21;;;;;;;1.20;0.68;;;;;;;;;;5114698;28;20335;-46
2023/07/19 13:49:49;;;;;;;2.25;0.70;;;;;;;;;;5106393;28;20551;-42
2023/07/19 13:52:16;;;;;;;2.40;0.80;;;;;;;;;;5108472;28;20230;-43
2023/07/19 13:54:43;;;;;;;1.00;0.60;;;;;;;;;;5112039;28;20309;-43
2023/07/19 13:57:13;;;;;;;1.73;0.60;;;;;;;;;;5108457;28;20223;-43
2023/07/19 13:59:40;;;;;;;1.83;0.80;;;;;;;;;;5096954;28;20237;-42
2023/07/19 14:02:08;;;;;;;1.88;0.80;;;;;;;;;;5105636;28;20678;-42
2023/07/19 14:04:36;;;;;;;1.15;0.70;;;;;;;;;;5104931;28;20737;-42
2023/07/19 14:07:03;;;;;;;0.70;0.60;;;;;;;;;;5103186;28;20214;-43
2023/07/19 14:09:30;;;;;;;3.47;0.70;;;;;;;;;;5103220;28;20702;-44
2023/07/19 14:11:58;;;;;;;0.82;0.60;;;;;;;;;;5106843;28;20775;-42
2023/07/19 14:14:25;;;;;;;1.58;0.80;;;;;;;;;;5105728;28;20575;-42
2023/07/19 14:16:52;;;;;;;1.92;1.02;;;;;;;;;;5113127;28;20226;-43
2023/07/19 14:19:19;;;;;;;1.17;0.73;;;;;;;;;;5110347;28;20284;-43
2023/07/19 14:21:46;;;;;;;2.40;0.80;;;;;;;;;;5107216;28;20237;-43
2023/07/19 14:24:13;;;;;;;1.83;0.60;;;;;;;;;;5104902;28;20293;-42
2023/07/19 14:26:40;;;;;;;1.52;1.00;;;;;;;;;;5104596;28;20221;-46
2023/07/19 14:29:08;;;;;;;2.05;0.85;;;;;;;;;;5107575;28;20301;-43
2023/07/19 14:31:35;;;;;;;0.70;0.60;;;;;;;;;;5112586;28;20214;-41
2023/07/19 14:34:02;;;;;;;1.10;0.60;;;;;;;;;;5113057;28;20750;-42
2023/07/19 14:36:30;;;;;;;3.90;0.80;;;;;;;;;;5096173;28;20225;-42
2023/07/19 14:38:57;;;;;;;0.93;0.63;;;;;;;;;;5102631;28;20331;-43
2023/07/19 14:41:24;;;;;;;1.00;0.73;;;;;;;;;;5104533;28;20219;-42
2023/07/19 14:43:51;;;;;;;1.20;0.88;;;;;;;;;;5103040;28;20328;-42
2023/07/19 14:46:19;;;;;;;2.50;0.77;;;;;;;;;;5107201;28;20678;-44
2023/07/19 14:48:46;;;;;;;0.80;0.52;;;;;;;;;;5104029;28;20249;-42
2023/07/19 14:51:14;;;;;;;0.88;0.68;;;;;;;;;;5104431;28;20294;-44
2023/07/19 14:53:41;;;;;;;2.78;1.17;;;;;;;;;;5104550;28;20218;-41
2023/07/19 14:56:12;;;;;;;1.27;0.70;;;;;;;;;;5113834;28;20217;-42
2023/07/19 14:58:44;;;;;;;1.15;0.80;;;;;;;;;;5095424;28;20300;-42
2023/07/19 15:01:11;;;;;;;1.02;0.77;;;;;;;;;;5093311;28;20233;-44
2023/07/19 15:03:39;;;;;;;1.45;0.90;;;;;;;;;;5105504;28;20226;-43
2023/07/19 15:06:07;;;;;;;1.27;0.73;;;;;;;;;;5110884;28;20214;-41
2023/07/19 15:08:34;;;;;;;1.52;0.80;;;;;;;;;;5109072;28;20701;-41
2023/07/19 15:11:01;;;;;;;0.95;0.70;;;;;;;;;;5103646;28;20229;-44
2023/07/19 15:13:28;;;;;;;1.30;0.70;;;;;;;;;;5103015;28;20226;-41
2023/07/19 15:15:56;;;;;;;1.45;0.70;;;;;;;;;;5102316;28;20566;-42
2023/07/19 15:18:26;;;;;;;0.90;0.60;;;;;;;;;;5103526;28;20232;-42